Terminal Aerodrome Forecast
Issued by NWS San Angelo, TX

Home | Current Version | Previous Version | Text Only | Print | Product List | Glossary On
Versions: 1 2 3 4 5 6 7 8 9 10 11 12 13 14 15 16 17
000
FTUS44 KSJT 291100
TAFSJT
TAF
KSJT 291133Z 2912/3012 17011KT P6SM FEW070 SCT100
     FM292100 09008KT P6SM FEW070 SCT100
     FM300700 16006KT P6SM FEW060=

USA.gov is the U.S. government's official web portal to all federal, state and local government web resources and services.